Time,TemperatureF,DewpointF,PressureIn,WindDirection,WindDirectionDegrees,WindSpeedMPH,WindSpeedGustMPH,Humidity,HourlyPrecipIn,Conditions,Clouds,dailyrainin,SoftwareType,DateUTC
2013-07-04 00:01:00,77.0,41.0,-100.00,North,-999,-999.0,-999.0,28,0.00,,,0.00,,2013-07-04 05:01:00,
2013-07-04 00:22:00,76.0,42.0,-100.00,North,-999,-999.0,-999.0,30,0.00,,,0.00,,2013-07-04 05:22:00,
2013-07-04 00:32:00,76.0,43.0,-100.00,North,-999,-999.0,-999.0,31,0.00,,,0.00,,2013-07-04 05:32:00,
2013-07-04 00:52:00,76.0,43.0,-100.00,North,-999,-999.0,-999.0,32,-99.99,,,0.00,,2013-07-04 05:52:00,
2013-07-04 01:01:00,75.0,43.0,-100.00,North,-999,-999.0,-999.0,32,0.00,,,0.00,,2013-07-04 06:01:00,
2013-07-04 01:22:00,74.0,43.0,-100.00,North,-999,-999.0,-999.0,33,0.00,,,0.00,,2013-07-04 06:22:00,
2013-07-04 01:34:00,74.0,44.0,-100.00,North,-999,-999.0,-999.0,35,0.00,,,0.00,,2013-07-04 06:34:00,
2013-07-04 01:43:00,74.0,45.0,-100.00,North,-999,-999.0,-999.0,36,0.00,,,0.00,,2013-07-04 06:43:00,
2013-07-04 01:52:00,74.0,44.0,-100.00,North,-999,-999.0,-999.0,35,0.00,,,0.00,,2013-07-04 06:52:00,
2013-07-04 02:02:00,74.0,45.0,-100.00,North,-999,-999.0,-999.0,36,0.00,,,0.00,,2013-07-04 07:02:00,
2013-07-04 02:12:00,74.0,45.0,-100.00,North,-999,-999.0,-999.0,36,0.00,,,0.00,,2013-07-04 07:12:00,
2013-07-04 02:22:00,74.0,45.0,-100.00,North,-999,-999.0,-999.0,36,0.00,,,0.00,,2013-07-04 07:22:00,
2013-07-04 02:34:00,74.0,45.0,-100.00,North,-999,-999.0,-999.0,36,0.00,,,0.00,,2013-07-04 07:34:00,
2013-07-04 02:53:00,72.0,-99.9,-100.00,North,-999,-999.0,-999.0,56,0.00,,,0.00,,2013-07-04 07:53:00,
2013-07-04 03:02:00,71.0,-99.9,-100.00,North,-999,-999.0,-999.0,61,0.00,,,0.00,,2013-07-04 08:02:00,
2013-07-04 03:22:00,71.0,58.0,-100.00,North,-999,-999.0,-999.0,63,-99.99,,,0.00,,2013-07-04 08:22:00,
2013-07-04 03:33:00,71.0,59.0,-100.00,North,-999,-999.0,-999.0,66,0.00,,,0.00,,2013-07-04 08:33:00,
2013-07-04 03:42:00,71.0,59.0,-100.00,North,-999,-999.0,-999.0,66,0.00,,,0.00,,2013-07-04 08:42:00,
2013-07-04 03:52:00,71.0,59.0,-100.00,North,-999,-999.0,-999.0,67,0.00,,,0.00,,2013-07-04 08:52:00,
2013-07-04 04:02:00,70.0,60.0,-100.00,North,-999,-999.0,-999.0,70,0.00,,,0.00,,2013-07-04 09:02:00,
2013-07-04 04:22:00,70.0,60.0,-100.00,North,-999,-999.0,-999.0,72,0.00,,,0.00,,2013-07-04 09:22:00,
2013-07-04 04:32:00,69.0,61.0,-100.00,North,-999,-999.0,-999.0,74,0.00,,,0.00,,2013-07-04 09:32:00,
2013-07-04 04:42:00,69.0,61.0,-100.00,North,-999,-999.0,-999.0,74,0.00,,,0.00,,2013-07-04 09:42:00,
2013-07-04 04:52:00,69.0,61.0,-100.00,North,-999,-999.0,-999.0,74,0.00,,,0.00,,2013-07-04 09:52:00,
2013-07-04 05:01:00,69.0,61.0,-100.00,North,-999,-999.0,-999.0,76,0.00,,,0.00,,2013-07-04 10:01:00,
2013-07-04 05:22:00,69.0,61.0,-100.00,North,-999,-999.0,-999.0,77,0.00,,,0.00,,2013-07-04 10:22:00,
2013-07-04 05:33:00,69.0,61.0,-100.00,North,-999,-999.0,-999.0,77,0.00,,,0.00,,2013-07-04 10:33:00,
2013-07-04 05:53:00,68.0,61.0,-100.00,North,-999,-999.0,-999.0,80,-99.99,,,0.00,,2013-07-04 10:53:00,
2013-07-04 06:02:00,67.0,61.0,-100.00,North,-999,-999.0,-999.0,81,0.00,,,0.00,,2013-07-04 11:02:00,
2013-07-04 06:11:00,67.0,61.0,-100.00,North,-999,-999.0,-999.0,81,0.00,,,0.00,,2013-07-04 11:11:00,
2013-07-04 06:22:00,67.0,61.0,-100.00,North,-999,-999.0,-999.0,81,0.00,,,0.00,,2013-07-04 11:22:00,
2013-07-04 06:33:00,67.0,62.0,-100.00,North,-999,-999.0,-999.0,84,0.00,,,0.00,,2013-07-04 11:33:00,
2013-07-04 06:53:00,67.0,62.0,-100.00,North,-999,-999.0,-999.0,85,0.00,,,0.00,,2013-07-04 11:53:00,
2013-07-04 07:02:00,67.0,63.0,-100.00,North,-999,-999.0,-999.0,86,0.00,,,0.00,,2013-07-04 12:02:00,
2013-07-04 07:22:00,67.0,63.0,-100.00,North,-999,-999.0,-999.0,88,-99.99,,,0.00,,2013-07-04 12:22:00,
2013-07-04 07:33:00,67.0,63.0,-100.00,North,-999,-999.0,-999.0,88,0.00,,,-99.99,,2013-07-04 12:33:00,
2013-07-04 07:52:00,67.0,63.0,-100.00,North,-999,-999.0,-999.0,87,0.00,,,-99.99,,2013-07-04 12:52:00,
2013-07-04 08:02:00,68.0,64.0,-100.00,North,-999,-999.0,-999.0,86,0.00,,,-99.99,,2013-07-04 13:02:00,
2013-07-04 08:12:00,68.0,64.0,-100.00,North,-999,-999.0,-999.0,86,0.00,,,-99.99,,2013-07-04 13:12:00,
2013-07-04 08:23:00,68.0,64.0,-100.00,North,-999,-999.0,-999.0,86,0.00,,,-99.99,,2013-07-04 13:23:00,
2013-07-04 08:33:00,71.0,65.0,-100.00,North,-999,-999.0,-999.0,80,0.00,,,0.00,,2013-07-04 13:33:00,
2013-07-04 08:43:00,71.0,65.0,-100.00,North,-999,-999.0,-999.0,80,0.00,,,0.00,,2013-07-04 13:43:00,
2013-07-04 08:53:00,71.0,65.0,-100.00,North,-999,-999.0,-999.0,80,0.00,,,0.00,,2013-07-04 13:53:00,
2013-07-04 09:02:00,71.0,65.0,-100.00,North,-999,-999.0,-999.0,80,0.00,,,0.00,,2013-07-04 14:02:00,
2013-07-04 09:22:00,74.0,62.0,-100.00,North,-999,-999.0,-999.0,65,-99.99,,,0.00,,2013-07-04 14:22:00,
2013-07-04 09:33:00,74.0,62.0,-100.00,North,-999,-999.0,-999.0,64,0.00,,,0.00,,2013-07-04 14:33:00,
2013-07-04 09:53:00,74.0,61.0,-100.00,North,-999,-999.0,-999.0,63,-99.99,,,0.00,,2013-07-04 14:53:00,
2013-07-04 10:02:00,75.0,60.0,-100.00,North,-999,-999.0,-999.0,60,0.00,,,0.00,,2013-07-04 15:02:00,
2013-07-04 10:23:00,76.0,59.0,-100.00,North,-999,-999.0,-999.0,56,0.00,,,-99.99,,2013-07-04 15:23:00,
2013-07-04 10:33:00,76.0,58.0,-100.00,North,-999,-999.0,-999.0,53,0.00,,,0.00,,2013-07-04 15:33:00,
2013-07-04 10:43:00,76.0,58.0,-100.00,North,-999,-999.0,-999.0,53,0.00,,,0.00,,2013-07-04 15:43:00,
2013-07-04 10:52:00,76.0,58.0,-100.00,North,-999,-999.0,-999.0,53,0.00,,,0.00,,2013-07-04 15:52:00,
2013-07-04 11:02:00,78.0,58.0,-100.00,North,-999,-999.0,-999.0,51,0.00,,,0.00,,2013-07-04 16:02:00,
2013-07-04 11:22:00,78.0,56.0,-100.00,North,-999,-999.0,-999.0,46,0.00,,,0.00,,2013-07-04 16:22:00,
2013-07-04 11:33:00,79.0,56.0,-100.00,North,-999,-999.0,-999.0,44,0.00,,,0.00,,2013-07-04 16:33:00,
2013-07-04 11:52:00,81.0,54.0,-100.00,North,-999,-999.0,-999.0,40,0.00,,,0.00,,2013-07-04 16:52:00,
2013-07-04 12:01:00,83.0,55.0,-100.00,North,-999,-999.0,-999.0,38,0.00,,,0.00,,2013-07-04 17:01:00,
2013-07-04 12:22:00,83.0,53.0,-100.00,North,-999,-999.0,-999.0,35,0.00,,,0.00,,2013-07-04 17:22:00,
2013-07-04 12:33:00,84.0,51.0,-100.00,North,-999,-999.0,-999.0,33,0.00,,,0.00,,2013-07-04 17:33:00,
2013-07-04 12:53:00,85.0,51.0,-100.00,North,-999,-999.0,-999.0,32,0.00,,,0.00,,2013-07-04 17:53:00,
2013-07-04 13:01:00,85.0,51.0,-100.00,North,-999,-999.0,-999.0,31,0.00,,,0.00,,2013-07-04 18:01:00,
2013-07-04 13:22:00,85.0,50.0,-100.00,North,-999,-999.0,-999.0,30,0.00,,,0.00,,2013-07-04 18:22:00,
2013-07-04 13:33:00,85.0,49.0,-100.00,North,-999,-999.0,-999.0,29,0.00,,,0.00,,2013-07-04 18:33:00,
2013-07-04 13:52:00,86.0,51.0,-100.00,North,-999,-999.0,-999.0,30,0.00,,,0.00,,2013-07-04 18:52:00,
2013-07-04 14:01:00,85.0,50.0,-100.00,North,-999,-999.0,-999.0,30,0.00,,,0.00,,2013-07-04 19:01:00,
2013-07-04 14:12:00,85.0,50.0,-100.00,North,-999,-999.0,-999.0,30,0.00,,,0.00,,2013-07-04 19:12:00,
2013-07-04 14:22:00,85.0,50.0,-100.00,North,-999,-999.0,-999.0,30,0.00,,,0.00,,2013-07-04 19:22:00,
2013-07-04 14:33:00,85.0,49.0,-100.00,North,-999,-999.0,-999.0,29,0.00,,,0.00,,2013-07-04 19:33:00,
2013-07-04 14:53:00,86.0,49.0,-100.00,North,-999,-999.0,-999.0,28,0.00,,,0.00,,2013-07-04 19:53:00,
2013-07-04 15:01:00,86.0,49.0,-100.00,North,-999,-999.0,-999.0,28,0.00,,,0.00,,2013-07-04 20:01:00,
2013-07-04 15:11:00,86.0,49.0,-100.00,North,-999,-999.0,-999.0,28,0.00,,,0.00,,2013-07-04 20:11:00,
2013-07-04 15:22:00,86.0,49.0,-100.00,North,-999,-999.0,-999.0,28,0.00,,,0.00,,2013-07-04 20:22:00,
2013-07-04 15:33:00,86.0,47.0,-100.00,North,-999,-999.0,-999.0,26,0.00,,,0.00,,2013-07-04 20:33:00,
2013-07-04 15:53:00,86.0,49.0,-100.00,North,-999,-999.0,-999.0,28,0.00,,,0.00,,2013-07-04 20:53:00,
2013-07-04 16:01:00,87.0,50.0,-100.00,North,-999,-999.0,-999.0,28,0.00,,,0.00,,2013-07-04 21:01:00,
2013-07-04 16:22:00,86.0,50.0,-100.00,North,-999,-999.0,-999.0,29,-99.99,,,0.00,,2013-07-04 21:22:00,
2013-07-04 16:32:00,86.0,50.0,-100.00,North,-999,-999.0,-999.0,29,-99.99,,,0.00,,2013-07-04 21:32:00,
2013-07-04 16:43:00,86.0,50.0,-100.00,North,-999,-999.0,-999.0,29,-99.99,,,0.00,,2013-07-04 21:43:00,
2013-07-04 16:52:00,86.0,50.0,-100.00,North,-999,-999.0,-999.0,29,-99.99,,,0.00,,2013-07-04 21:52:00,
2013-07-04 17:02:00,88.0,47.0,-100.00,North,-999,-999.0,-999.0,24,0.00,,,0.00,,2013-07-04 22:02:00,
2013-07-04 17:22:00,90.0,46.0,-100.00,North,-999,-999.0,-999.0,22,0.00,,,0.00,,2013-07-04 22:22:00,
2013-07-04 17:33:00,90.0,45.0,-100.00,North,-999,-999.0,-999.0,21,0.00,,,0.00,,2013-07-04 22:33:00,
2013-07-04 17:43:00,90.0,45.0,-100.00,North,-999,-999.0,-999.0,21,0.00,,,0.00,,2013-07-04 22:43:00,
2013-07-04 17:52:00,90.0,45.0,-100.00,North,-999,-999.0,-999.0,21,0.00,,,0.00,,2013-07-04 22:52:00,
2013-07-04 18:01:00,89.0,44.0,-100.00,North,-999,-999.0,-999.0,21,0.00,,,0.00,,2013-07-04 23:01:00,
2013-07-04 18:23:00,89.0,45.0,-100.00,North,-999,-999.0,-999.0,22,0.00,,,0.00,,2013-07-04 23:23:00,
2013-07-04 18:33:00,89.0,45.0,-100.00,North,-999,-999.0,-999.0,22,0.00,,,0.00,,2013-07-04 23:33:00,
2013-07-04 18:52:00,89.0,48.0,-100.00,North,-999,-999.0,-999.0,25,-99.99,,,0.00,,2013-07-04 23:52:00,
2013-07-04 19:01:00,88.0,48.0,-100.00,North,-999,-999.0,-999.0,25,0.00,,,0.00,,2013-07-05 00:01:00,
2013-07-04 19:22:00,88.0,48.0,-100.00,North,-999,-999.0,-999.0,25,0.00,,,0.00,,2013-07-05 00:22:00,
2013-07-04 19:32:00,88.0,49.0,-100.00,North,-999,-999.0,-999.0,26,0.00,,,0.00,,2013-07-05 00:32:00,
2013-07-04 19:43:00,88.0,49.0,-100.00,North,-999,-999.0,-999.0,26,0.00,,,0.00,,2013-07-05 00:43:00,
2013-07-04 19:52:00,88.0,49.0,-100.00,North,-999,-999.0,-999.0,26,0.00,,,0.00,,2013-07-05 00:52:00,
2013-07-04 20:01:00,87.0,49.0,-100.00,North,-999,-999.0,-999.0,27,0.00,,,0.00,,2013-07-05 01:01:00,
2013-07-04 20:11:00,87.0,49.0,-100.00,North,-999,-999.0,-999.0,27,0.00,,,0.00,,2013-07-05 01:11:00,
2013-07-04 20:22:00,87.0,49.0,-100.00,North,-999,-999.0,-999.0,27,0.00,,,0.00,,2013-07-05 01:22:00,
2013-07-04 20:32:00,86.0,50.0,-100.00,North,-999,-999.0,-999.0,29,0.00,,,0.00,,2013-07-05 01:32:00,
2013-07-04 20:52:00,84.0,50.0,-100.00,North,-999,-999.0,-999.0,31,0.00,,,0.00,,2013-07-05 01:52:00,
2013-07-04 21:02:00,84.0,50.0,-100.00,North,-999,-999.0,-999.0,31,0.00,,,0.00,,2013-07-05 02:02:00,
2013-07-04 21:21:00,80.0,51.0,-100.00,North,-999,-999.0,-999.0,36,-99.99,,,0.00,,2013-07-05 02:21:00,
2013-07-04 21:32:00,79.0,50.0,-100.00,North,-999,-999.0,-999.0,37,0.00,,,0.00,,2013-07-05 02:32:00,
2013-07-04 21:52:00,79.0,51.0,-100.00,North,-999,-999.0,-999.0,37,0.00,,,-99.99,,2013-07-05 02:52:00,
2013-07-04 22:02:00,79.0,51.0,-100.00,North,-999,-999.0,-999.0,37,0.00,,,-99.99,,2013-07-05 03:02:00,
2013-07-04 22:22:00,80.0,51.0,-100.00,North,-999,-999.0,-999.0,36,0.00,,,0.00,,2013-07-05 03:22:00,
2013-07-04 22:32:00,80.0,50.0,-100.00,North,-999,-999.0,-999.0,35,0.00,,,0.00,,2013-07-05 03:32:00,
2013-07-04 22:52:00,80.0,49.0,-100.00,North,-999,-999.0,-999.0,35,0.00,,,0.00,,2013-07-05 03:52:00,
2013-07-04 23:01:00,80.0,49.0,-100.00,North,-999,-999.0,-999.0,35,0.00,,,0.00,,2013-07-05 04:01:00,
2013-07-04 23:22:00,80.0,48.0,-100.00,North,-999,-999.0,-999.0,33,0.00,,,0.00,,2013-07-05 04:22:00,
2013-07-04 23:33:00,79.0,48.0,-100.00,North,-999,-999.0,-999.0,34,0.00,,,0.00,,2013-07-05 04:33:00,
2013-07-04 23:53:00,80.0,48.0,-100.00,North,-999,-999.0,-999.0,33,0.00,,,-99.99,,2013-07-05 04:53:00,